sensor_id;sensor_type;location;lat;lon;timestamp;P1;durP1;ratioP1;P2;durP2;ratioP2
70558;SDS011;58108;48.094;11.838;2023-12-20T00:01:04;1.53;;;0.40;;
70558;SDS011;58108;48.094;11.838;2023-12-20T00:03:30;4.13;;;1.03;;
70558;SDS011;58108;48.094;11.838;2023-12-20T00:05:55;2.05;;;0.65;;
70558;SDS011;58108;48.094;11.838;2023-12-20T00:08:21;3.63;;;0.60;;
70558;SDS011;58108;48.094;11.838;2023-12-20T00:10:46;3.17;;;1.00;;
70558;SDS011;58108;48.094;11.838;2023-12-20T00:13:12;3.15;;;0.90;;
70558;SDS011;58108;48.094;11.838;2023-12-20T00:15:37;3.17;;;0.97;;
70558;SDS011;58108;48.094;11.838;2023-12-20T00:18:03;4.20;;;1.13;;
70558;SDS011;58108;48.094;11.838;2023-12-20T00:20:29;4.37;;;1.30;;
70558;SDS011;58108;48.094;11.838;2023-12-20T00:22:58;3.20;;;1.00;;
70558;SDS011;58108;48.094;11.838;2023-12-20T00:25:24;2.60;;;0.70;;
70558;SDS011;58108;48.094;11.838;2023-12-20T00:27:50;2.95;;;0.75;;
70558;SDS011;58108;48.094;11.838;2023-12-20T00:30:15;2.97;;;0.93;;
70558;SDS011;58108;48.094;11.838;2023-12-20T00:32:41;2.53;;;0.68;;
70558;SDS011;58108;48.094;11.838;2023-12-20T00:35:12;3.88;;;1.20;;
70558;SDS011;58108;48.094;11.838;2023-12-20T00:37:46;1.88;;;0.50;;
70558;SDS011;58108;48.094;11.838;2023-12-20T00:40:12;3.17;;;0.87;;
70558;SDS011;58108;48.094;11.838;2023-12-20T00:42:37;3.70;;;0.68;;
70558;SDS011;58108;48.094;11.838;2023-12-20T00:45:03;2.45;;;0.80;;
70558;SDS011;58108;48.094;11.838;2023-12-20T00:47:30;3.10;;;0.80;;
70558;SDS011;58108;48.094;11.838;2023-12-20T00:49:56;3.55;;;0.90;;
70558;SDS011;58108;48.094;11.838;2023-12-20T00:52:23;2.95;;;0.70;;
70558;SDS011;58108;48.094;11.838;2023-12-20T00:54:49;5.60;;;1.15;;
70558;SDS011;58108;48.094;11.838;2023-12-20T00:57:14;3.33;;;0.87;;
70558;SDS011;58108;48.094;11.838;2023-12-20T00:59:40;4.00;;;1.00;;
70558;SDS011;58108;48.094;11.838;2023-12-20T01:02:06;1.77;;;0.43;;
70558;SDS011;58108;48.094;11.838;2023-12-20T01:04:32;3.42;;;1.00;;
70558;SDS011;58108;48.094;11.838;2023-12-20T01:06:57;2.80;;;1.00;;
70558;SDS011;58108;48.094;11.838;2023-12-20T01:09:23;3.75;;;1.02;;
70558;SDS011;58108;48.094;11.838;2023-12-20T01:11:51;3.97;;;0.87;;
70558;SDS011;58108;48.094;11.838;2023-12-20T01:14:17;3.60;;;0.90;;
70558;SDS011;58108;48.094;11.838;2023-12-20T01:16:43;3.58;;;1.00;;
70558;SDS011;58108;48.094;11.838;2023-12-20T01:19:09;3.43;;;0.80;;
70558;SDS011;58108;48.094;11.838;2023-12-20T01:21:35;3.80;;;1.05;;
70558;SDS011;58108;48.094;11.838;2023-12-20T01:24:00;4.27;;;0.90;;
70558;SDS011;58108;48.094;11.838;2023-12-20T01:26:26;2.70;;;0.80;;
70558;SDS011;58108;48.094;11.838;2023-12-20T01:28:51;3.05;;;0.75;;
70558;SDS011;58108;48.094;11.838;2023-12-20T01:31:17;4.05;;;1.30;;
70558;SDS011;58108;48.094;11.838;2023-12-20T01:33:42;3.27;;;0.97;;
70558;SDS011;58108;48.094;11.838;2023-12-20T01:36:08;4.50;;;1.30;;
70558;SDS011;58108;48.094;11.838;2023-12-20T01:38:33;3.38;;;1.00;;
70558;SDS011;58108;48.094;11.838;2023-12-20T01:40:59;3.17;;;1.00;;
70558;SDS011;58108;48.094;11.838;2023-12-20T01:43:25;4.45;;;1.20;;
70558;SDS011;58108;48.094;11.838;2023-12-20T01:45:51;3.67;;;1.00;;
70558;SDS011;58108;48.094;11.838;2023-12-20T01:48:17;2.53;;;0.85;;
70558;SDS011;58108;48.094;11.838;2023-12-20T01:50:43;5.05;;;1.40;;
70558;SDS011;58108;48.094;11.838;2023-12-20T01:53:10;3.30;;;1.23;;
70558;SDS011;58108;48.094;11.838;2023-12-20T01:55:39;2.97;;;1.00;;
70558;SDS011;58108;48.094;11.838;2023-12-20T01:58:09;3.10;;;0.93;;
70558;SDS011;58108;48.094;11.838;2023-12-20T02:00:35;3.50;;;0.95;;
70558;SDS011;58108;48.094;11.838;2023-12-20T02:03:02;3.33;;;1.10;;
70558;SDS011;58108;48.094;11.838;2023-12-20T02:05:32;3.67;;;1.05;;
70558;SDS011;58108;48.094;11.838;2023-12-20T02:07:59;3.30;;;1.02;;
70558;SDS011;58108;48.094;11.838;2023-12-20T02:10:25;3.90;;;1.30;;
70558;SDS011;58108;48.094;11.838;2023-12-20T02:12:51;2.95;;;0.90;;
70558;SDS011;58108;48.094;11.838;2023-12-20T02:15:17;3.90;;;1.30;;
70558;SDS011;58108;48.094;11.838;2023-12-20T02:17:42;4.70;;;1.13;;
70558;SDS011;58108;48.094;11.838;2023-12-20T02:20:09;4.18;;;1.30;;
70558;SDS011;58108;48.094;11.838;2023-12-20T02:22:35;4.80;;;1.20;;
70558;SDS011;58108;48.094;11.838;2023-12-20T02:25:00;4.03;;;1.20;;
70558;SDS011;58108;48.094;11.838;2023-12-20T02:27:26;3.67;;;1.23;;
70558;SDS011;58108;48.094;11.838;2023-12-20T02:29:53;3.77;;;1.07;;
70558;SDS011;58108;48.094;11.838;2023-12-20T02:32:18;4.70;;;1.20;;
70558;SDS011;58108;48.094;11.838;2023-12-20T02:34:47;4.07;;;1.03;;
70558;SDS011;58108;48.094;11.838;2023-12-20T02:37:13;3.85;;;0.93;;
70558;SDS011;58108;48.094;11.838;2023-12-20T02:39:38;5.00;;;1.20;;
70558;SDS011;58108;48.094;11.838;2023-12-20T02:42:04;3.13;;;0.90;;
70558;SDS011;58108;48.094;11.838;2023-12-20T02:44:29;4.10;;;1.20;;
70558;SDS011;58108;48.094;11.838;2023-12-20T02:46:55;3.20;;;1.10;;
70558;SDS011;58108;48.094;11.838;2023-12-20T02:49:21;3.58;;;1.10;;
70558;SDS011;58108;48.094;11.838;2023-12-20T02:51:46;5.27;;;1.40;;
70558;SDS011;58108;48.094;11.838;2023-12-20T02:54:12;3.40;;;1.13;;
70558;SDS011;58108;48.094;11.838;2023-12-20T02:56:38;4.00;;;1.30;;
70558;SDS011;58108;48.094;11.838;2023-12-20T02:59:03;5.05;;;1.23;;
70558;SDS011;58108;48.094;11.838;2023-12-20T03:01:31;2.88;;;0.90;;
70558;SDS011;58108;48.094;11.838;2023-12-20T03:03:57;3.53;;;1.08;;
70558;SDS011;58108;48.094;11.838;2023-12-20T03:06:22;3.35;;;0.70;;
70558;SDS011;58108;48.094;11.838;2023-12-20T03:08:48;2.10;;;0.40;;
70558;SDS011;58108;48.094;11.838;2023-12-20T03:11:14;3.00;;;0.87;;
70558;SDS011;58108;48.094;11.838;2023-12-20T03:13:39;3.55;;;1.00;;
70558;SDS011;58108;48.094;11.838;2023-12-20T03:16:11;3.33;;;1.00;;
70558;SDS011;58108;48.094;11.838;2023-12-20T03:18:38;1.70;;;0.50;;
70558;SDS011;58108;48.094;11.838;2023-12-20T03:21:04;2.40;;;0.87;;
70558;SDS011;58108;48.094;11.838;2023-12-20T03:23:29;3.00;;;0.90;;
70558;SDS011;58108;48.094;11.838;2023-12-20T03:25:56;2.50;;;0.85;;
70558;SDS011;58108;48.094;11.838;2023-12-20T03:28:22;2.65;;;0.75;;
70558;SDS011;58108;48.094;11.838;2023-12-20T03:30:48;2.80;;;0.60;;
70558;SDS011;58108;48.094;11.838;2023-12-20T03:33:14;3.45;;;0.88;;
70558;SDS011;58108;48.094;11.838;2023-12-20T03:35:39;3.10;;;0.77;;
70558;SDS011;58108;48.094;11.838;2023-12-20T03:38:05;3.33;;;0.57;;
70558;SDS011;58108;48.094;11.838;2023-12-20T03:40:30;3.17;;;0.77;;
70558;SDS011;58108;48.094;11.838;2023-12-20T03:42:56;5.40;;;1.50;;
70558;SDS011;58108;48.094;11.838;2023-12-20T03:45:21;2.85;;;0.60;;
70558;SDS011;58108;48.094;11.838;2023-12-20T03:47:47;2.85;;;0.57;;
70558;SDS011;58108;48.094;11.838;2023-12-20T03:50:13;3.10;;;0.70;;
70558;SDS011;58108;48.094;11.838;2023-12-20T03:52:38;2.72;;;0.95;;
70558;SDS011;58108;48.094;11.838;2023-12-20T03:55:04;2.70;;;0.90;;
70558;SDS011;58108;48.094;11.838;2023-12-20T03:57:30;3.65;;;0.80;;
70558;SDS011;58108;48.094;11.838;2023-12-20T03:59:55;2.93;;;0.90;;
70558;SDS011;58108;48.094;11.838;2023-12-20T04:02:21;2.90;;;0.80;;
70558;SDS011;58108;48.094;11.838;2023-12-20T04:04:46;3.25;;;0.70;;
70558;SDS011;58108;48.094;11.838;2023-12-20T04:07:12;2.33;;;0.70;;
70558;SDS011;58108;48.094;11.838;2023-12-20T04:09:37;3.70;;;1.07;;
70558;SDS011;58108;48.094;11.838;2023-12-20T04:12:03;4.32;;;0.70;;
70558;SDS011;58108;48.094;11.838;2023-12-20T04:14:28;3.10;;;1.00;;
70558;SDS011;58108;48.094;11.838;2023-12-20T04:16:54;2.27;;;0.70;;
70558;SDS011;58108;48.094;11.838;2023-12-20T04:19:20;3.83;;;0.70;;
70558;SDS011;58108;48.094;11.838;2023-12-20T04:21:45;3.50;;;0.90;;
70558;SDS011;58108;48.094;11.838;2023-12-20T04:24:11;1.67;;;0.57;;
70558;SDS011;58108;48.094;11.838;2023-12-20T04:26:36;2.78;;;0.70;;
70558;SDS011;58108;48.094;11.838;2023-12-20T04:29:02;2.70;;;0.50;;
70558;SDS011;58108;48.094;11.838;2023-12-20T04:31:27;3.03;;;1.00;;
70558;SDS011;58108;48.094;11.838;2023-12-20T04:33:53;3.90;;;0.70;;
70558;SDS011;58108;48.094;11.838;2023-12-20T04:36:19;3.03;;;0.60;;
70558;SDS011;58108;48.094;11.838;2023-12-20T04:38:44;2.50;;;0.73;;
70558;SDS011;58108;48.094;11.838;2023-12-20T04:41:10;3.20;;;0.40;;
70558;SDS011;58108;48.094;11.838;2023-12-20T04:43:35;1.80;;;0.40;;
70558;SDS011;58108;48.094;11.838;2023-12-20T04:46:01;2.20;;;0.40;;
70558;SDS011;58108;48.094;11.838;2023-12-20T04:48:27;1.70;;;0.40;;
70558;SDS011;58108;48.094;11.838;2023-12-20T04:50:53;2.13;;;0.28;;
70558;SDS011;58108;48.094;11.838;2023-12-20T04:53:18;3.13;;;0.40;;
70558;SDS011;58108;48.094;11.838;2023-12-20T04:55:44;2.23;;;0.20;;
70558;SDS011;58108;48.094;11.838;2023-12-20T04:58:09;1.50;;;0.10;;
70558;SDS011;58108;48.094;11.838;2023-12-20T05:00:35;2.30;;;0.40;;
70558;SDS011;58108;48.094;11.838;2023-12-20T05:03:00;1.50;;;0.30;;
70558;SDS011;58108;48.094;11.838;2023-12-20T05:05:26;2.13;;;0.20;;
70558;SDS011;58108;48.094;11.838;2023-12-20T05:07:51;1.83;;;0.30;;
70558;SDS011;58108;48.094;11.838;2023-12-20T05:10:17;1.95;;;0.20;;
70558;SDS011;58108;48.094;11.838;2023-12-20T05:12:43;2.47;;;0.30;;
70558;SDS011;58108;48.094;11.838;2023-12-20T05:15:09;2.60;;;0.50;;
70558;SDS011;58108;48.094;11.838;2023-12-20T05:17:34;2.80;;;0.40;;
70558;SDS011;58108;48.094;11.838;2023-12-20T05:20:00;2.23;;;0.40;;
70558;SDS011;58108;48.094;11.838;2023-12-20T05:22:26;1.90;;;0.38;;
70558;SDS011;58108;48.094;11.838;2023-12-20T05:24:52;1.77;;;0.50;;
70558;SDS011;58108;48.094;11.838;2023-12-20T05:27:18;2.20;;;0.50;;
70558;SDS011;58108;48.094;11.838;2023-12-20T05:29:44;1.35;;;0.40;;
70558;SDS011;58108;48.094;11.838;2023-12-20T05:32:10;2.00;;;0.50;;
70558;SDS011;58108;48.094;11.838;2023-12-20T05:34:35;2.90;;;0.40;;
70558;SDS011;58108;48.094;11.838;2023-12-20T05:37:02;2.00;;;0.52;;
70558;SDS011;58108;48.094;11.838;2023-12-20T05:39:28;2.58;;;0.60;;
70558;SDS011;58108;48.094;11.838;2023-12-20T05:41:54;2.40;;;0.60;;
70558;SDS011;58108;48.094;11.838;2023-12-20T05:44:19;1.13;;;0.20;;
70558;SDS011;58108;48.094;11.838;2023-12-20T05:46:45;2.20;;;0.60;;
70558;SDS011;58108;48.094;11.838;2023-12-20T05:49:10;2.40;;;0.50;;
70558;SDS011;58108;48.094;11.838;2023-12-20T05:51:36;2.08;;;0.40;;
70558;SDS011;58108;48.094;11.838;2023-12-20T05:54:01;1.73;;;0.40;;
70558;SDS011;58108;48.094;11.838;2023-12-20T05:56:27;2.60;;;0.43;;
70558;SDS011;58108;48.094;11.838;2023-12-20T05:58:52;1.38;;;0.20;;
70558;SDS011;58108;48.094;11.838;2023-12-20T06:01:18;1.93;;;0.40;;
70558;SDS011;58108;48.094;11.838;2023-12-20T06:03:43;1.77;;;0.37;;
70558;SDS011;58108;48.094;11.838;2023-12-20T06:06:09;1.35;;;0.30;;
70558;SDS011;58108;48.094;11.838;2023-12-20T06:08:35;2.33;;;0.37;;
70558;SDS011;58108;48.094;11.838;2023-12-20T06:11:01;2.22;;;0.40;;
70558;SDS011;58108;48.094;11.838;2023-12-20T06:13:27;1.65;;;0.38;;
70558;SDS011;58108;48.094;11.838;2023-12-20T06:15:54;3.33;;;0.60;;
70558;SDS011;58108;48.094;11.838;2023-12-20T06:18:20;3.15;;;0.63;;
70558;SDS011;58108;48.094;11.838;2023-12-20T06:20:46;2.10;;;0.60;;
70558;SDS011;58108;48.094;11.838;2023-12-20T06:23:11;2.03;;;0.53;;
70558;SDS011;58108;48.094;11.838;2023-12-20T06:25:37;4.10;;;0.60;;
70558;SDS011;58108;48.094;11.838;2023-12-20T06:28:02;1.87;;;0.30;;
70558;SDS011;58108;48.094;11.838;2023-12-20T06:30:28;1.67;;;0.40;;
70558;SDS011;58108;48.094;11.838;2023-12-20T06:32:54;1.67;;;0.30;;
70558;SDS011;58108;48.094;11.838;2023-12-20T06:35:20;3.30;;;0.70;;
70558;SDS011;58108;48.094;11.838;2023-12-20T06:37:45;1.65;;;0.30;;
70558;SDS011;58108;48.094;11.838;2023-12-20T06:40:11;1.97;;;0.63;;
70558;SDS011;58108;48.094;11.838;2023-12-20T06:42:37;1.77;;;0.38;;
70558;SDS011;58108;48.094;11.838;2023-12-20T06:45:03;1.10;;;0.17;;
70558;SDS011;58108;48.094;11.838;2023-12-20T06:47:29;3.17;;;0.50;;
70558;SDS011;58108;48.094;11.838;2023-12-20T06:49:54;1.98;;;0.40;;
70558;SDS011;58108;48.094;11.838;2023-12-20T06:52:20;1.83;;;0.30;;
70558;SDS011;58108;48.094;11.838;2023-12-20T06:54:45;1.77;;;0.40;;
70558;SDS011;58108;48.094;11.838;2023-12-20T06:57:11;2.65;;;0.40;;
70558;SDS011;58108;48.094;11.838;2023-12-20T06:59:40;1.77;;;0.30;;
70558;SDS011;58108;48.094;11.838;2023-12-20T07:02:06;3.75;;;0.35;;
70558;SDS011;58108;48.094;11.838;2023-12-20T07:04:33;1.80;;;0.40;;
70558;SDS011;58108;48.094;11.838;2023-12-20T07:06:58;2.33;;;0.45;;
70558;SDS011;58108;48.094;11.838;2023-12-20T07:09:25;1.02;;;0.15;;
70558;SDS011;58108;48.094;11.838;2023-12-20T07:11:52;1.42;;;0.32;;
70558;SDS011;58108;48.094;11.838;2023-12-20T07:14:18;2.23;;;0.40;;
70558;SDS011;58108;48.094;11.838;2023-12-20T07:16:43;1.33;;;0.30;;
70558;SDS011;58108;48.094;11.838;2023-12-20T07:19:09;1.63;;;0.23;;
70558;SDS011;58108;48.094;11.838;2023-12-20T07:21:34;1.93;;;0.10;;
70558;SDS011;58108;48.094;11.838;2023-12-20T07:24:00;2.53;;;0.30;;
70558;SDS011;58108;48.094;11.838;2023-12-20T07:26:25;1.60;;;0.20;;
70558;SDS011;58108;48.094;11.838;2023-12-20T07:28:51;3.70;;;0.20;;
70558;SDS011;58108;48.094;11.838;2023-12-20T07:31:16;1.25;;;0.20;;
70558;SDS011;58108;48.094;11.838;2023-12-20T07:33:42;2.23;;;0.30;;
70558;SDS011;58108;48.094;11.838;2023-12-20T07:36:08;2.23;;;0.27;;
70558;SDS011;58108;48.094;11.838;2023-12-20T07:38:34;0.88;;;0.10;;
70558;SDS011;58108;48.094;11.838;2023-12-20T07:40:59;1.58;;;0.10;;
70558;SDS011;58108;48.094;11.838;2023-12-20T07:43:25;1.37;;;0.17;;
70558;SDS011;58108;48.094;11.838;2023-12-20T07:45:50;2.03;;;0.40;;
70558;SDS011;58108;48.094;11.838;2023-12-20T07:48:16;1.30;;;0.20;;
70558;SDS011;58108;48.094;11.838;2023-12-20T07:50:42;1.43;;;0.10;;
70558;SDS011;58108;48.094;11.838;2023-12-20T07:53:08;1.15;;;0.10;;
70558;SDS011;58108;48.094;11.838;2023-12-20T07:55:33;1.03;;;0.10;;
70558;SDS011;58108;48.094;11.838;2023-12-20T07:58:00;1.02;;;0.20;;
70558;SDS011;58108;48.094;11.838;2023-12-20T08:00:26;0.82;;;0.10;;
70558;SDS011;58108;48.094;11.838;2023-12-20T08:02:52;1.37;;;0.10;;
70558;SDS011;58108;48.094;11.838;2023-12-20T08:05:17;1.25;;;0.20;;
70558;SDS011;58108;48.094;11.838;2023-12-20T08:07:43;1.27;;;0.13;;
70558;SDS011;58108;48.094;11.838;2023-12-20T08:10:09;1.17;;;0.10;;
70558;SDS011;58108;48.094;11.838;2023-12-20T08:12:34;1.40;;;0.30;;
70558;SDS011;58108;48.094;11.838;2023-12-20T08:15:01;1.90;;;0.10;;
70558;SDS011;58108;48.094;11.838;2023-12-20T08:17:27;1.40;;;0.30;;
70558;SDS011;58108;48.094;11.838;2023-12-20T08:19:52;0.60;;;0.10;;
70558;SDS011;58108;48.094;11.838;2023-12-20T08:22:18;1.00;;;0.10;;
70558;SDS011;58108;48.094;11.838;2023-12-20T08:24:43;1.20;;;0.10;;
70558;SDS011;58108;48.094;11.838;2023-12-20T08:27:09;1.38;;;0.22;;
70558;SDS011;58108;48.094;11.838;2023-12-20T08:29:34;1.07;;;0.10;;
70558;SDS011;58108;48.094;11.838;2023-12-20T08:32:01;1.38;;;0.15;;
70558;SDS011;58108;48.094;11.838;2023-12-20T08:34:26;1.43;;;0.20;;
70558;SDS011;58108;48.094;11.838;2023-12-20T08:36:52;1.15;;;0.20;;
70558;SDS011;58108;48.094;11.838;2023-12-20T08:39:18;2.03;;;0.13;;
70558;SDS011;58108;48.094;11.838;2023-12-20T08:41:43;1.60;;;0.10;;
70558;SDS011;58108;48.094;11.838;2023-12-20T08:44:09;1.73;;;0.30;;
70558;SDS011;58108;48.094;11.838;2023-12-20T08:46:35;1.23;;;0.20;;
70558;SDS011;58108;48.094;11.838;2023-12-20T08:49:00;1.83;;;0.20;;
70558;SDS011;58108;48.094;11.838;2023-12-20T08:51:26;1.23;;;0.10;;
70558;SDS011;58108;48.094;11.838;2023-12-20T08:53:52;0.63;;;0.10;;
70558;SDS011;58108;48.094;11.838;2023-12-20T08:56:18;0.75;;;0.10;;
70558;SDS011;58108;48.094;11.838;2023-12-20T08:58:45;2.17;;;0.20;;
70558;SDS011;58108;48.094;11.838;2023-12-20T09:01:11;2.00;;;0.20;;
70558;SDS011;58108;48.094;11.838;2023-12-20T09:03:36;2.25;;;0.20;;
70558;SDS011;58108;48.094;11.838;2023-12-20T09:06:02;1.73;;;0.30;;
70558;SDS011;58108;48.094;11.838;2023-12-20T09:08:28;1.20;;;0.20;;
70558;SDS011;58108;48.094;11.838;2023-12-20T09:10:54;1.27;;;0.30;;
70558;SDS011;58108;48.094;11.838;2023-12-20T09:13:19;1.45;;;0.10;;
70558;SDS011;58108;48.094;11.838;2023-12-20T09:15:46;1.00;;;0.10;;
70558;SDS011;58108;48.094;11.838;2023-12-20T09:18:11;1.92;;;0.20;;
70558;SDS011;58108;48.094;11.838;2023-12-20T09:20:37;1.27;;;0.10;;
70558;SDS011;58108;48.094;11.838;2023-12-20T09:23:02;1.50;;;0.13;;
70558;SDS011;58108;48.094;11.838;2023-12-20T09:25:28;1.37;;;0.20;;
70558;SDS011;58108;48.094;11.838;2023-12-20T09:27:55;1.00;;;0.15;;
70558;SDS011;58108;48.094;11.838;2023-12-20T09:30:20;1.53;;;0.10;;
70558;SDS011;58108;48.094;11.838;2023-12-20T09:32:46;1.75;;;0.20;;
70558;SDS011;58108;48.094;11.838;2023-12-20T09:35:11;1.30;;;0.20;;
70558;SDS011;58108;48.094;11.838;2023-12-20T09:37:37;2.88;;;0.90;;
70558;SDS011;58108;48.094;11.838;2023-12-20T09:40:03;1.43;;;0.20;;
70558;SDS011;58108;48.094;11.838;2023-12-20T09:42:34;1.00;;;0.20;;
70558;SDS011;58108;48.094;11.838;2023-12-20T09:45:06;0.80;;;0.10;;
70558;SDS011;58108;48.094;11.838;2023-12-20T09:47:33;0.95;;;0.20;;
70558;SDS011;58108;48.094;11.838;2023-12-20T09:50:00;0.98;;;0.10;;
70558;SDS011;58108;48.094;11.838;2023-12-20T09:52:27;1.85;;;0.20;;
70558;SDS011;58108;48.094;11.838;2023-12-20T09:54:52;1.93;;;0.33;;
70558;SDS011;58108;48.094;11.838;2023-12-20T09:57:20;1.30;;;0.20;;
70558;SDS011;58108;48.094;11.838;2023-12-20T09:59:45;1.53;;;0.20;;
70558;SDS011;58108;48.094;11.838;2023-12-20T10:02:12;2.25;;;0.45;;
70558;SDS011;58108;48.094;11.838;2023-12-20T10:04:42;3.28;;;0.45;;
70558;SDS011;58108;48.094;11.838;2023-12-20T10:07:13;1.83;;;0.20;;
70558;SDS011;58108;48.094;11.838;2023-12-20T10:09:38;1.42;;;0.17;;
70558;SDS011;58108;48.094;11.838;2023-12-20T10:12:04;1.60;;;0.28;;
70558;SDS011;58108;48.094;11.838;2023-12-20T10:14:30;1.75;;;0.30;;
70558;SDS011;58108;48.094;11.838;2023-12-20T10:17:04;1.77;;;0.20;;
70558;SDS011;58108;48.094;11.838;2023-12-20T10:19:30;2.30;;;0.17;;
70558;SDS011;58108;48.094;11.838;2023-12-20T10:21:57;2.72;;;0.30;;
70558;SDS011;58108;48.094;11.838;2023-12-20T10:24:24;1.20;;;0.10;;
70558;SDS011;58108;48.094;11.838;2023-12-20T10:26:58;1.20;;;0.20;;
70558;SDS011;58108;48.094;11.838;2023-12-20T10:29:26;1.90;;;0.30;;
70558;SDS011;58108;48.094;11.838;2023-12-20T10:31:52;2.03;;;0.27;;
70558;SDS011;58108;48.094;11.838;2023-12-20T10:34:22;1.60;;;0.32;;
70558;SDS011;58108;48.094;11.838;2023-12-20T10:36:48;1.67;;;0.30;;
70558;SDS011;58108;48.094;11.838;2023-12-20T10:39:13;3.33;;;0.40;;
70558;SDS011;58108;48.094;11.838;2023-12-20T10:41:40;1.07;;;0.20;;
70558;SDS011;58108;48.094;11.838;2023-12-20T10:44:07;1.40;;;0.20;;
70558;SDS011;58108;48.094;11.838;2023-12-20T10:46:35;1.60;;;0.30;;
70558;SDS011;58108;48.094;11.838;2023-12-20T10:49:03;1.45;;;0.25;;
70558;SDS011;58108;48.094;11.838;2023-12-20T10:51:30;1.63;;;0.40;;
70558;SDS011;58108;48.094;11.838;2023-12-20T10:53:56;2.17;;;0.40;;
70558;SDS011;58108;48.094;11.838;2023-12-20T10:56:22;1.60;;;0.32;;
70558;SDS011;58108;48.094;11.838;2023-12-20T10:58:51;2.28;;;0.40;;
70558;SDS011;58108;48.094;11.838;2023-12-20T11:01:18;2.13;;;0.40;;
70558;SDS011;58108;48.094;11.838;2023-12-20T11:03:49;1.92;;;0.32;;
70558;SDS011;58108;48.094;11.838;2023-12-20T11:11:36;1.50;;;0.20;;
70558;SDS011;58108;48.094;11.838;2023-12-20T11:14:24;1.92;;;0.30;;
70558;SDS011;58108;48.094;11.838;2023-12-20T11:17:05;1.23;;;0.20;;
70558;SDS011;58108;48.094;11.838;2023-12-20T11:22:25;1.57;;;0.20;;
70558;SDS011;58108;48.094;11.838;2023-12-20T11:24:53;1.35;;;0.30;;
70558;SDS011;58108;48.094;11.838;2023-12-20T11:27:19;2.30;;;0.40;;
70558;SDS011;58108;48.094;11.838;2023-12-20T11:29:52;1.55;;;0.22;;
70558;SDS011;58108;48.094;11.838;2023-12-20T11:34:50;2.00;;;0.30;;
70558;SDS011;58108;48.094;11.838;2023-12-20T11:37:16;1.85;;;0.30;;
70558;SDS011;58108;48.094;11.838;2023-12-20T11:39:45;1.52;;;0.30;;
70558;SDS011;58108;48.094;11.838;2023-12-20T11:42:10;2.47;;;0.70;;
70558;SDS011;58108;48.094;11.838;2023-12-20T11:44:36;2.60;;;0.50;;
70558;SDS011;58108;48.094;11.838;2023-12-20T11:47:02;2.30;;;0.40;;
70558;SDS011;58108;48.094;11.838;2023-12-20T11:49:28;2.47;;;0.60;;
70558;SDS011;58108;48.094;11.838;2023-12-20T11:51:57;2.88;;;0.73;;
70558;SDS011;58108;48.094;11.838;2023-12-20T11:54:22;2.47;;;0.75;;
70558;SDS011;58108;48.094;11.838;2023-12-20T11:56:48;2.10;;;0.47;;
70558;SDS011;58108;48.094;11.838;2023-12-20T11:59:14;2.47;;;0.60;;
70558;SDS011;58108;48.094;11.838;2023-12-20T12:01:40;2.33;;;0.60;;
70558;SDS011;58108;48.094;11.838;2023-12-20T12:04:05;1.83;;;0.30;;
70558;SDS011;58108;48.094;11.838;2023-12-20T12:06:32;2.10;;;0.65;;
70558;SDS011;58108;48.094;11.838;2023-12-20T12:08:58;2.53;;;0.75;;
70558;SDS011;58108;48.094;11.838;2023-12-20T12:11:23;2.70;;;0.70;;
70558;SDS011;58108;48.094;11.838;2023-12-20T12:13:50;2.38;;;0.98;;
70558;SDS011;58108;48.094;11.838;2023-12-20T12:16:19;2.50;;;0.63;;
70558;SDS011;58108;48.094;11.838;2023-12-20T12:18:45;3.17;;;1.20;;
70558;SDS011;58108;48.094;11.838;2023-12-20T12:21:18;2.47;;;0.50;;
70558;SDS011;58108;48.094;11.838;2023-12-20T12:23:45;2.63;;;0.60;;
70558;SDS011;58108;48.094;11.838;2023-12-20T12:26:11;3.25;;;0.63;;
70558;SDS011;58108;48.094;11.838;2023-12-20T12:28:39;2.10;;;0.60;;
70558;SDS011;58108;48.094;11.838;2023-12-20T12:31:06;2.58;;;0.65;;
70558;SDS011;58108;48.094;11.838;2023-12-20T12:33:33;4.90;;;0.60;;
70558;SDS011;58108;48.094;11.838;2023-12-20T12:35:59;1.92;;;0.30;;
70558;SDS011;58108;48.094;11.838;2023-12-20T12:38:29;2.27;;;0.23;;
70558;SDS011;58108;48.094;11.838;2023-12-20T12:40:55;1.80;;;0.40;;
70558;SDS011;58108;48.094;11.838;2023-12-20T12:43:21;2.50;;;0.32;;
70558;SDS011;58108;48.094;11.838;2023-12-20T12:45:48;2.17;;;0.43;;
70558;SDS011;58108;48.094;11.838;2023-12-20T12:48:14;2.03;;;0.30;;
70558;SDS011;58108;48.094;11.838;2023-12-20T12:50:40;2.08;;;0.40;;
70558;SDS011;58108;48.094;11.838;2023-12-20T12:53:05;1.85;;;0.40;;
70558;SDS011;58108;48.094;11.838;2023-12-20T12:55:31;1.53;;;0.20;;
70558;SDS011;58108;48.094;11.838;2023-12-20T12:57:56;1.63;;;0.30;;
70558;SDS011;58108;48.094;11.838;2023-12-20T13:00:22;1.53;;;0.30;;
70558;SDS011;58108;48.094;11.838;2023-12-20T13:02:48;2.03;;;0.40;;
70558;SDS011;58108;48.094;11.838;2023-12-20T13:05:13;1.60;;;0.40;;
70558;SDS011;58108;48.094;11.838;2023-12-20T13:07:39;1.88;;;0.45;;
70558;SDS011;58108;48.094;11.838;2023-12-20T13:10:04;1.80;;;0.40;;
70558;SDS011;58108;48.094;11.838;2023-12-20T13:12:31;1.92;;;0.43;;
70558;SDS011;58108;48.094;11.838;2023-12-20T13:14:57;2.13;;;0.20;;
70558;SDS011;58108;48.094;11.838;2023-12-20T13:17:23;2.40;;;0.50;;
70558;SDS011;58108;48.094;11.838;2023-12-20T13:19:49;2.85;;;0.45;;
70558;SDS011;58108;48.094;11.838;2023-12-20T13:22:15;1.73;;;0.40;;
70558;SDS011;58108;48.094;11.838;2023-12-20T13:24:41;1.50;;;0.30;;
70558;SDS011;58108;48.094;11.838;2023-12-20T13:27:09;1.50;;;0.30;;
70558;SDS011;58108;48.094;11.838;2023-12-20T13:29:34;1.80;;;0.35;;
70558;SDS011;58108;48.094;11.838;2023-12-20T13:32:00;1.90;;;0.20;;
70558;SDS011;58108;48.094;11.838;2023-12-20T13:34:25;1.90;;;0.30;;
70558;SDS011;58108;48.094;11.838;2023-12-20T13:36:51;2.22;;;0.60;;
70558;SDS011;58108;48.094;11.838;2023-12-20T13:39:16;2.23;;;0.60;;
70558;SDS011;58108;48.094;11.838;2023-12-20T13:41:42;3.90;;;1.07;;
70558;SDS011;58108;48.094;11.838;2023-12-20T13:44:07;3.25;;;0.88;;
70558;SDS011;58108;48.094;11.838;2023-12-20T13:46:33;3.20;;;1.47;;
70558;SDS011;58108;48.094;11.838;2023-12-20T13:48:59;3.63;;;1.20;;
70558;SDS011;58108;48.094;11.838;2023-12-20T13:51:25;3.10;;;0.90;;
70558;SDS011;58108;48.094;11.838;2023-12-20T13:53:50;2.40;;;0.60;;
70558;SDS011;58108;48.094;11.838;2023-12-20T13:56:16;3.60;;;1.00;;
70558;SDS011;58108;48.094;11.838;2023-12-20T13:58:41;4.87;;;1.53;;
70558;SDS011;58108;48.094;11.838;2023-12-20T14:01:07;2.90;;;0.77;;
70558;SDS011;58108;48.094;11.838;2023-12-20T14:03:34;4.10;;;1.48;;
70558;SDS011;58108;48.094;11.838;2023-12-20T14:05:59;4.13;;;0.98;;
70558;SDS011;58108;48.094;11.838;2023-12-20T14:08:26;2.77;;;0.80;;
70558;SDS011;58108;48.094;11.838;2023-12-20T14:10:52;3.50;;;1.17;;
70558;SDS011;58108;48.094;11.838;2023-12-20T14:13:18;4.53;;;1.13;;
70558;SDS011;58108;48.094;11.838;2023-12-20T14:15:44;3.92;;;0.95;;
70558;SDS011;58108;48.094;11.838;2023-12-20T14:18:09;4.23;;;0.97;;
70558;SDS011;58108;48.094;11.838;2023-12-20T14:20:35;5.00;;;1.53;;
70558;SDS011;58108;48.094;11.838;2023-12-20T14:23:01;3.53;;;1.15;;
70558;SDS011;58108;48.094;11.838;2023-12-20T14:25:27;2.28;;;0.88;;
70558;SDS011;58108;48.094;11.838;2023-12-20T14:27:53;3.37;;;0.83;;
70558;SDS011;58108;48.094;11.838;2023-12-20T14:30:18;9.60;;;1.00;;
70558;SDS011;58108;48.094;11.838;2023-12-20T14:32:44;3.70;;;1.00;;
70558;SDS011;58108;48.094;11.838;2023-12-20T14:35:09;5.23;;;1.40;;
70558;SDS011;58108;48.094;11.838;2023-12-20T14:37:35;3.85;;;1.02;;